sensor_id;sensor_type;location;lat;lon;timestamp;temperature;humidity
72772;SHT30;60894;42.544;1.516;2023-11-19T00:00:12;7.06;76.39
72772;SHT30;60894;42.544;1.516;2023-11-19T00:02:40;6.93;77.20
72772;SHT30;60894;42.544;1.516;2023-11-19T00:05:09;7.09;77.41
72772;SHT30;60894;42.544;1.516;2023-11-19T00:07:37;6.97;78.08
72772;SHT30;60894;42.544;1.516;2023-11-19T00:10:07;7.01;77.63
72772;SHT30;60894;42.544;1.516;2023-11-19T00:12:35;6.93;76.99
72772;SHT30;60894;42.544;1.516;2023-11-19T00:15:03;6.85;77.16
72772;SHT30;60894;42.544;1.516;2023-11-19T00:17:30;6.85;76.93
72772;SHT30;60894;42.544;1.516;2023-11-19T00:19:57;6.89;77.30
72772;SHT30;60894;42.544;1.516;2023-11-19T00:22:25;7.01;76.91
72772;SHT30;60894;42.544;1.516;2023-11-19T00:24:53;7.01;77.15
72772;SHT30;60894;42.544;1.516;2023-11-19T00:27:20;6.93;77.24
72772;SHT30;60894;42.544;1.516;2023-11-19T00:29:47;6.80;77.08
72772;SHT30;60894;42.544;1.516;2023-11-19T00:32:14;6.76;78.18
72772;SHT30;60894;42.544;1.516;2023-11-19T00:34:43;6.78;77.82
72772;SHT30;60894;42.544;1.516;2023-11-19T00:37:10;6.68;76.95
72772;SHT30;60894;42.544;1.516;2023-11-19T00:39:39;6.68;77.14
72772;SHT30;60894;42.544;1.516;2023-11-19T00:42:05;6.61;76.18
72772;SHT30;60894;42.544;1.516;2023-11-19T00:44:32;6.73;76.17
72772;SHT30;60894;42.544;1.516;2023-11-19T00:46:59;6.78;77.08
72772;SHT30;60894;42.544;1.516;2023-11-19T00:49:26;6.75;76.89
72772;SHT30;60894;42.544;1.516;2023-11-19T00:51:53;6.62;77.01
72772;SHT30;60894;42.544;1.516;2023-11-19T00:54:20;6.55;77.77
72772;SHT30;60894;42.544;1.516;2023-11-19T00:56:52;6.59;76.85
72772;SHT30;60894;42.544;1.516;2023-11-19T00:59:19;6.48;76.79
72772;SHT30;60894;42.544;1.516;2023-11-19T01:01:46;6.58;76.59
72772;SHT30;60894;42.544;1.516;2023-11-19T01:04:14;6.58;76.82
72772;SHT30;60894;42.544;1.516;2023-11-19T01:06:41;6.56;76.14
72772;SHT30;60894;42.544;1.516;2023-11-19T01:09:08;6.52;76.52
72772;SHT30;60894;42.544;1.516;2023-11-19T01:11:35;6.58;76.76
72772;SHT30;60894;42.544;1.516;2023-11-19T01:14:04;6.58;77.04
72772;SHT30;60894;42.544;1.516;2023-11-19T01:16:31;6.56;76.49
72772;SHT30;60894;42.544;1.516;2023-11-19T01:18:58;6.66;75.89
72772;SHT30;60894;42.544;1.516;2023-11-19T01:21:29;6.52;76.10
72772;SHT30;60894;42.544;1.516;2023-11-19T01:23:57;6.35;76.79
72772;SHT30;60894;42.544;1.516;2023-11-19T01:26:24;6.29;75.92
72772;SHT30;60894;42.544;1.516;2023-11-19T01:28:51;6.32;75.97
72772;SHT30;60894;42.544;1.516;2023-11-19T01:31:19;6.37;76.54
72772;SHT30;60894;42.544;1.516;2023-11-19T01:33:46;6.42;77.39
72772;SHT30;60894;42.544;1.516;2023-11-19T01:36:13;6.35;77.87
72772;SHT30;60894;42.544;1.516;2023-11-19T01:38:40;6.32;77.29
72772;SHT30;60894;42.544;1.516;2023-11-19T01:41:07;6.24;76.70
72772;SHT30;60894;42.544;1.516;2023-11-19T01:43:35;6.20;76.65
72772;SHT30;60894;42.544;1.516;2023-11-19T01:46:03;6.22;76.81
72772;SHT30;60894;42.544;1.516;2023-11-19T01:48:34;6.24;76.60
72772;SHT30;60894;42.544;1.516;2023-11-19T01:51:03;6.27;75.63
72772;SHT30;60894;42.544;1.516;2023-11-19T01:53:31;6.20;76.12
72772;SHT30;60894;42.544;1.516;2023-11-19T01:55:59;6.22;75.70
72772;SHT30;60894;42.544;1.516;2023-11-19T01:58:26;6.24;76.82
72772;SHT30;60894;42.544;1.516;2023-11-19T02:00:56;6.16;77.26
72772;SHT30;60894;42.544;1.516;2023-11-19T02:03:24;6.04;76.48
72772;SHT30;60894;42.544;1.516;2023-11-19T02:05:54;6.00;77.12
72772;SHT30;60894;42.544;1.516;2023-11-19T02:08:22;6.04;76.91
72772;SHT30;60894;42.544;1.516;2023-11-19T02:10:49;6.14;76.47
72772;SHT30;60894;42.544;1.516;2023-11-19T02:13:16;6.10;75.89
72772;SHT30;60894;42.544;1.516;2023-11-19T02:15:43;6.08;75.79
72772;SHT30;60894;42.544;1.516;2023-11-19T02:18:20;6.17;76.06
72772;SHT30;60894;42.544;1.516;2023-11-19T02:20:48;6.18;75.14
72772;SHT30;60894;42.544;1.516;2023-11-19T02:23:18;6.11;76.60
72772;SHT30;60894;42.544;1.516;2023-11-19T02:25:49;6.17;76.65
72772;SHT30;60894;42.544;1.516;2023-11-19T02:28:20;6.06;76.38
72772;SHT30;60894;42.544;1.516;2023-11-19T02:30:47;6.04;76.60
72772;SHT30;60894;42.544;1.516;2023-11-19T02:33:14;5.97;76.35
72772;SHT30;60894;42.544;1.516;2023-11-19T02:35:41;5.93;75.82
72772;SHT30;60894;42.544;1.516;2023-11-19T02:38:08;5.94;75.73
72772;SHT30;60894;42.544;1.516;2023-11-19T02:40:35;5.89;76.34
72772;SHT30;60894;42.544;1.516;2023-11-19T02:43:02;5.97;76.83
72772;SHT30;60894;42.544;1.516;2023-11-19T02:45:33;5.94;76.87
72772;SHT30;60894;42.544;1.516;2023-11-19T02:48:01;5.89;77.35
72772;SHT30;60894;42.544;1.516;2023-11-19T02:50:28;5.86;77.31
72772;SHT30;60894;42.544;1.516;2023-11-19T02:52:55;5.89;77.25
72772;SHT30;60894;42.544;1.516;2023-11-19T02:55:23;5.78;77.38
72772;SHT30;60894;42.544;1.516;2023-11-19T02:57:51;5.77;76.92
72772;SHT30;60894;42.544;1.516;2023-11-19T03:00:20;5.74;77.51
72772;SHT30;60894;42.544;1.516;2023-11-19T03:02:54;5.74;77.44
72772;SHT30;60894;42.544;1.516;2023-11-19T03:05:26;5.71;76.48
72772;SHT30;60894;42.544;1.516;2023-11-19T03:07:56;5.57;75.32
72772;SHT30;60894;42.544;1.516;2023-11-19T03:10:23;5.53;75.64
72772;SHT30;60894;42.544;1.516;2023-11-19T03:12:51;5.62;76.14
72772;SHT30;60894;42.544;1.516;2023-11-19T03:15:18;5.65;76.53
72772;SHT30;60894;42.544;1.516;2023-11-19T03:17:46;5.57;76.72
72772;SHT30;60894;42.544;1.516;2023-11-19T03:20:15;5.66;76.39
72772;SHT30;60894;42.544;1.516;2023-11-19T03:22:42;5.74;76.83
72772;SHT30;60894;42.544;1.516;2023-11-19T03:25:09;5.71;75.95
72772;SHT30;60894;42.544;1.516;2023-11-19T03:27:37;5.74;76.28
72772;SHT30;60894;42.544;1.516;2023-11-19T03:30:07;5.69;75.71
72772;SHT30;60894;42.544;1.516;2023-11-19T03:32:35;5.50;75.26
72772;SHT30;60894;42.544;1.516;2023-11-19T03:35:02;5.45;74.91
72772;SHT30;60894;42.544;1.516;2023-11-19T03:37:31;5.45;74.86
72772;SHT30;60894;42.544;1.516;2023-11-19T03:39:58;5.45;74.98
72772;SHT30;60894;42.544;1.516;2023-11-19T03:42:26;5.43;75.65
72772;SHT30;60894;42.544;1.516;2023-11-19T03:44:53;5.49;75.99
72772;SHT30;60894;42.544;1.516;2023-11-19T03:47:20;5.47;76.32
72772;SHT30;60894;42.544;1.516;2023-11-19T03:49:48;5.55;76.39
72772;SHT30;60894;42.544;1.516;2023-11-19T03:52:15;5.40;76.49
72772;SHT30;60894;42.544;1.516;2023-11-19T03:54:44;5.40;76.44
72772;SHT30;60894;42.544;1.516;2023-11-19T03:57:11;5.45;76.20
72772;SHT30;60894;42.544;1.516;2023-11-19T03:59:39;5.52;76.20
72772;SHT30;60894;42.544;1.516;2023-11-19T04:02:06;5.42;76.87
72772;SHT30;60894;42.544;1.516;2023-11-19T04:04:33;5.35;76.83
72772;SHT30;60894;42.544;1.516;2023-11-19T04:07:00;5.35;75.99
72772;SHT30;60894;42.544;1.516;2023-11-19T04:09:28;5.40;75.56
72772;SHT30;60894;42.544;1.516;2023-11-19T04:11:57;5.40;75.23
72772;SHT30;60894;42.544;1.516;2023-11-19T04:14:24;5.35;76.42
72772;SHT30;60894;42.544;1.516;2023-11-19T04:16:51;5.40;76.69
72772;SHT30;60894;42.544;1.516;2023-11-19T04:19:18;5.39;76.57
72772;SHT30;60894;42.544;1.516;2023-11-19T04:21:45;5.43;75.93
72772;SHT30;60894;42.544;1.516;2023-11-19T04:24:12;5.43;76.03
72772;SHT30;60894;42.544;1.516;2023-11-19T04:26:43;5.47;76.39
72772;SHT30;60894;42.544;1.516;2023-11-19T04:29:13;5.50;75.95
72772;SHT30;60894;42.544;1.516;2023-11-19T04:31:40;5.38;76.01
72772;SHT30;60894;42.544;1.516;2023-11-19T04:34:07;5.36;76.09
72772;SHT30;60894;42.544;1.516;2023-11-19T04:36:34;5.29;75.86
72772;SHT30;60894;42.544;1.516;2023-11-19T04:39:03;5.25;75.41
72772;SHT30;60894;42.544;1.516;2023-11-19T04:41:34;5.19;75.37
72772;SHT30;60894;42.544;1.516;2023-11-19T04:44:01;5.15;76.51
72772;SHT30;60894;42.544;1.516;2023-11-19T04:46:29;5.09;76.04
72772;SHT30;60894;42.544;1.516;2023-11-19T04:48:56;5.22;76.25
72772;SHT30;60894;42.544;1.516;2023-11-19T04:51:23;5.26;76.31
72772;SHT30;60894;42.544;1.516;2023-11-19T04:53:50;5.18;76.13
72772;SHT30;60894;42.544;1.516;2023-11-19T04:56:17;5.12;76.61
72772;SHT30;60894;42.544;1.516;2023-11-19T04:58:45;5.14;76.07
72772;SHT30;60894;42.544;1.516;2023-11-19T05:01:14;5.05;75.64
72772;SHT30;60894;42.544;1.516;2023-11-19T05:03:44;4.99;75.57
72772;SHT30;60894;42.544;1.516;2023-11-19T05:06:12;5.05;75.45
72772;SHT30;60894;42.544;1.516;2023-11-19T05:08:39;4.98;75.60
72772;SHT30;60894;42.544;1.516;2023-11-19T05:11:06;5.09;75.95
72772;SHT30;60894;42.544;1.516;2023-11-19T05:13:33;5.18;75.92
72772;SHT30;60894;42.544;1.516;2023-11-19T05:16:01;5.22;75.77
72772;SHT30;60894;42.544;1.516;2023-11-19T05:18:27;5.15;75.70
72772;SHT30;60894;42.544;1.516;2023-11-19T05:20:56;5.12;75.99
72772;SHT30;60894;42.544;1.516;2023-11-19T05:23:25;5.16;75.75
72772;SHT30;60894;42.544;1.516;2023-11-19T05:25:52;5.11;75.92
72772;SHT30;60894;42.544;1.516;2023-11-19T05:28:19;5.14;75.81
72772;SHT30;60894;42.544;1.516;2023-11-19T05:30:46;5.08;75.84
72772;SHT30;60894;42.544;1.516;2023-11-19T05:33:16;4.95;75.71
72772;SHT30;60894;42.544;1.516;2023-11-19T05:35:43;4.83;76.28
72772;SHT30;60894;42.544;1.516;2023-11-19T05:38:11;4.81;76.38
72772;SHT30;60894;42.544;1.516;2023-11-19T05:40:38;4.80;76.95
72772;SHT30;60894;42.544;1.516;2023-11-19T05:43:06;4.87;77.00
72772;SHT30;60894;42.544;1.516;2023-11-19T05:45:33;4.84;77.06
72772;SHT30;60894;42.544;1.516;2023-11-19T05:48:06;4.87;75.91
72772;SHT30;60894;42.544;1.516;2023-11-19T05:50:35;4.89;76.38
72772;SHT30;60894;42.544;1.516;2023-11-19T05:53:04;4.92;75.65
72772;SHT30;60894;42.544;1.516;2023-11-19T05:55:37;4.88;76.05
72772;SHT30;60894;42.544;1.516;2023-11-19T05:58:10;4.75;75.92
72772;SHT30;60894;42.544;1.516;2023-11-19T06:00:38;4.75;76.28
72772;SHT30;60894;42.544;1.516;2023-11-19T06:03:06;4.74;75.97
72772;SHT30;60894;42.544;1.516;2023-11-19T06:05:33;4.68;75.15
72772;SHT30;60894;42.544;1.516;2023-11-19T06:08:00;4.70;74.75
72772;SHT30;60894;42.544;1.516;2023-11-19T06:10:28;4.84;74.68
72772;SHT30;60894;42.544;1.516;2023-11-19T06:12:59;4.84;74.43
72772;SHT30;60894;42.544;1.516;2023-11-19T06:15:30;4.98;74.60
72772;SHT30;60894;42.544;1.516;2023-11-19T06:17:58;4.87;74.68
72772;SHT30;60894;42.544;1.516;2023-11-19T06:20:27;4.78;75.16
72772;SHT30;60894;42.544;1.516;2023-11-19T06:22:54;4.80;74.80
72772;SHT30;60894;42.544;1.516;2023-11-19T06:25:21;4.74;75.08
72772;SHT30;60894;42.544;1.516;2023-11-19T06:27:49;4.75;75.39
72772;SHT30;60894;42.544;1.516;2023-11-19T06:30:18;4.77;74.80
72772;SHT30;60894;42.544;1.516;2023-11-19T06:32:45;4.84;74.40
72772;SHT30;60894;42.544;1.516;2023-11-19T06:35:12;4.74;75.65
72772;SHT30;60894;42.544;1.516;2023-11-19T06:37:40;4.68;76.24
72772;SHT30;60894;42.544;1.516;2023-11-19T06:40:08;4.77;76.41
72772;SHT30;60894;42.544;1.516;2023-11-19T06:42:35;4.81;75.88
72772;SHT30;60894;42.544;1.516;2023-11-19T06:45:03;4.75;75.52
72772;SHT30;60894;42.544;1.516;2023-11-19T06:47:33;4.68;75.54
72772;SHT30;60894;42.544;1.516;2023-11-19T06:50:00;4.63;76.49
72772;SHT30;60894;42.544;1.516;2023-11-19T06:52:27;4.61;76.49
72772;SHT30;60894;42.544;1.516;2023-11-19T06:54:53;4.56;76.78
72772;SHT30;60894;42.544;1.516;2023-11-19T06:57:21;4.61;76.75
72772;SHT30;60894;42.544;1.516;2023-11-19T06:59:49;4.67;76.15
72772;SHT30;60894;42.544;1.516;2023-11-19T07:02:16;4.71;76.16
72772;SHT30;60894;42.544;1.516;2023-11-19T07:04:44;4.67;75.35
72772;SHT30;60894;42.544;1.516;2023-11-19T07:07:11;4.81;75.24
72772;SHT30;60894;42.544;1.516;2023-11-19T07:09:40;4.87;74.91
72772;SHT30;60894;42.544;1.516;2023-11-19T07:12:07;4.89;74.91
72772;SHT30;60894;42.544;1.516;2023-11-19T07:14:36;4.84;74.33
72772;SHT30;60894;42.544;1.516;2023-11-19T07:17:03;4.81;74.03
72772;SHT30;60894;42.544;1.516;2023-11-19T07:19:30;4.85;74.73
72772;SHT30;60894;42.544;1.516;2023-11-19T07:21:58;4.78;74.60
72772;SHT30;60894;42.544;1.516;2023-11-19T07:24:25;4.78;74.49
72772;SHT30;60894;42.544;1.516;2023-11-19T07:26:56;4.77;74.58
72772;SHT30;60894;42.544;1.516;2023-11-19T07:29:23;4.74;74.83
72772;SHT30;60894;42.544;1.516;2023-11-19T07:31:50;4.68;74.94
72772;SHT30;60894;42.544;1.516;2023-11-19T07:34:17;4.77;75.34
72772;SHT30;60894;42.544;1.516;2023-11-19T07:36:46;4.84;75.42
72772;SHT30;60894;42.544;1.516;2023-11-19T07:39:15;4.85;74.81
72772;SHT30;60894;42.544;1.516;2023-11-19T07:41:41;4.94;74.74
72772;SHT30;60894;42.544;1.516;2023-11-19T07:44:08;4.96;74.93
72772;SHT30;60894;42.544;1.516;2023-11-19T07:46:47;4.98;74.63
72772;SHT30;60894;42.544;1.516;2023-11-19T07:49:14;4.88;75.29
72772;SHT30;60894;42.544;1.516;2023-11-19T07:51:41;4.91;75.45
72772;SHT30;60894;42.544;1.516;2023-11-19T07:54:08;4.89;74.77
72772;SHT30;60894;42.544;1.516;2023-11-19T07:56:36;4.99;75.34
72772;SHT30;60894;42.544;1.516;2023-11-19T07:59:04;5.07;75.18
72772;SHT30;60894;42.544;1.516;2023-11-19T08:01:32;5.07;74.19
72772;SHT30;60894;42.544;1.516;2023-11-19T08:03:59;5.34;75.30
72772;SHT30;60894;42.544;1.516;2023-11-19T08:06:27;5.42;74.37
72772;SHT30;60894;42.544;1.516;2023-11-19T08:08:54;5.46;73.11
72772;SHT30;60894;42.544;1.516;2023-11-19T08:11:21;5.57;72.53
72772;SHT30;60894;42.544;1.516;2023-11-19T08:13:49;5.65;71.90
72772;SHT30;60894;42.544;1.516;2023-11-19T08:16:16;5.77;72.36
72772;SHT30;60894;42.544;1.516;2023-11-19T08:18:43;5.91;72.35
72772;SHT30;60894;42.544;1.516;2023-11-19T08:21:10;6.07;71.83
72772;SHT30;60894;42.544;1.516;2023-11-19T08:23:37;6.27;71.20
72772;SHT30;60894;42.544;1.516;2023-11-19T08:26:04;6.41;70.25
72772;SHT30;60894;42.544;1.516;2023-11-19T08:28:31;6.44;69.61
72772;SHT30;60894;42.544;1.516;2023-11-19T08:31:01;6.61;69.56
72772;SHT30;60894;42.544;1.516;2023-11-19T08:33:29;6.75;68.52
72772;SHT30;60894;42.544;1.516;2023-11-19T08:35:56;6.92;68.98
72772;SHT30;60894;42.544;1.516;2023-11-19T08:38:23;6.99;68.00
72772;SHT30;60894;42.544;1.516;2023-11-19T08:40:50;7.17;67.92
72772;SHT30;60894;42.544;1.516;2023-11-19T08:43:17;7.23;67.64
72772;SHT30;60894;42.544;1.516;2023-11-19T08:45:45;7.28;67.08
72772;SHT30;60894;42.544;1.516;2023-11-19T08:48:13;7.38;67.03
72772;SHT30;60894;42.544;1.516;2023-11-19T08:50:40;7.57;67.14
72772;SHT30;60894;42.544;1.516;2023-11-19T08:53:07;7.75;66.50
72772;SHT30;60894;42.544;1.516;2023-11-19T08:55:34;7.83;66.04
72772;SHT30;60894;42.544;1.516;2023-11-19T08:58:02;7.96;65.77
72772;SHT30;60894;42.544;1.516;2023-11-19T09:00:29;8.20;65.86
72772;SHT30;60894;42.544;1.516;2023-11-19T09:02:58;8.29;64.71
72772;SHT30;60894;42.544;1.516;2023-11-19T09:05:26;8.36;64.46
72772;SHT30;60894;42.544;1.516;2023-11-19T09:07:53;8.63;64.38
72772;SHT30;60894;42.544;1.516;2023-11-19T09:10:20;8.71;63.76
72772;SHT30;60894;42.544;1.516;2023-11-19T09:12:47;8.92;63.49
72772;SHT30;60894;42.544;1.516;2023-11-19T09:15:14;9.11;62.69
72772;SHT30;60894;42.544;1.516;2023-11-19T09:17:41;9.39;62.42
72772;SHT30;60894;42.544;1.516;2023-11-19T09:20:09;9.56;61.43
72772;SHT30;60894;42.544;1.516;2023-11-19T09:22:42;9.82;60.96
72772;SHT30;60894;42.544;1.516;2023-11-19T09:25:09;10.10;61.18
72772;SHT30;60894;42.544;1.516;2023-11-19T09:27:36;10.42;60.22
72772;SHT30;60894;42.544;1.516;2023-11-19T09:30:04;10.72;59.08
72772;SHT30;60894;42.544;1.516;2023-11-19T09:32:31;11.02;58.61
72772;SHT30;60894;42.544;1.516;2023-11-19T09:34:58;11.24;57.01
72772;SHT30;60894;42.544;1.516;2023-11-19T09:37:26;11.51;56.46
72772;SHT30;60894;42.544;1.516;2023-11-19T09:39:54;11.71;55.56
72772;SHT30;60894;42.544;1.516;2023-11-19T09:42:23;11.96;55.36
72772;SHT30;60894;42.544;1.516;2023-11-19T09:44:51;12.22;54.03
72772;SHT30;60894;42.544;1.516;2023-11-19T09:47:19;12.49;52.77
72772;SHT30;60894;42.544;1.516;2023-11-19T09:49:46;12.63;52.49
72772;SHT30;60894;42.544;1.516;2023-11-19T09:52:14;12.83;50.69
72772;SHT30;60894;42.544;1.516;2023-11-19T09:54:41;13.05;50.81
72772;SHT30;60894;42.544;1.516;2023-11-19T09:57:09;13.41;49.66
72772;SHT30;60894;42.544;1.516;2023-11-19T09:59:39;13.63;49.28
72772;SHT30;60894;42.544;1.516;2023-11-19T10:02:07;13.96;48.71
72772;SHT30;60894;42.544;1.516;2023-11-19T10:04:34;14.33;46.96
72772;SHT30;60894;42.544;1.516;2023-11-19T10:07:03;14.51;45.22
72772;SHT30;60894;42.544;1.516;2023-11-19T10:09:30;14.74;45.04
72772;SHT30;60894;42.544;1.516;2023-11-19T10:11:57;14.93;44.95
72772;SHT30;60894;42.544;1.516;2023-11-19T10:14:25;15.20;43.84
72772;SHT30;60894;42.544;1.516;2023-11-19T10:16:54;15.50;43.79
72772;SHT30;60894;42.544;1.516;2023-11-19T10:19:22;15.77;42.21
72772;SHT30;60894;42.544;1.516;2023-11-19T10:21:49;15.91;41.16
72772;SHT30;60894;42.544;1.516;2023-11-19T10:24:16;16.15;41.69
72772;SHT30;60894;42.544;1.516;2023-11-19T10:26:57;16.46;42.13
72772;SHT30;60894;42.544;1.516;2023-11-19T10:29:26;16.55;41.56
72772;SHT30;60894;42.544;1.516;2023-11-19T10:31:57;16.89;41.61
72772;SHT30;60894;42.544;1.516;2023-11-19T10:34:25;17.06;40.76
72772;SHT30;60894;42.544;1.516;2023-11-19T10:36:52;17.28;40.48
72772;SHT30;60894;42.544;1.516;2023-11-19T10:39:19;17.44;39.96
72772;SHT30;60894;42.544;1.516;2023-11-19T10:41:49;17.74;40.58
72772;SHT30;60894;42.544;1.516;2023-11-19T10:47:23;17.85;38.55
72772;SHT30;60894;42.544;1.516;2023-11-19T10:49:50;17.93;37.44
72772;SHT30;60894;42.544;1.516;2023-11-19T10:52:18;18.33;38.30
72772;SHT30;60894;42.544;1.516;2023-11-19T10:54:49;18.44;38.40
72772;SHT30;60894;42.544;1.516;2023-11-19T10:57:19;18.56;38.16
72772;SHT30;60894;42.544;1.516;2023-11-19T10:59:47;18.50;37.47
72772;SHT30;60894;42.544;1.516;2023-11-19T11:02:21;18.39;37.68
72772;SHT30;60894;42.544;1.516;2023-11-19T11:04:51;18.43;36.82
72772;SHT30;60894;42.544;1.516;2023-11-19T11:07:21;18.34;37.84
72772;SHT30;60894;42.544;1.516;2023-11-19T11:09:51;18.65;37.93
72772;SHT30;60894;42.544;1.516;2023-11-19T11:12:22;18.70;36.77
72772;SHT30;60894;42.544;1.516;2023-11-19T11:14:49;18.94;35.74
72772;SHT30;60894;42.544;1.516;2023-11-19T11:17:17;19.05;35.93
72772;SHT30;60894;42.544;1.516;2023-11-19T11:19:46;19.19;35.73
72772;SHT30;60894;42.544;1.516;2023-11-19T11:22:14;19.31;35.46
72772;SHT30;60894;42.544;1.516;2023-11-19T11:25:10;19.65;35.44
72772;SHT30;60894;42.544;1.516;2023-11-19T11:28:09;19.45;34.01
72772;SHT30;60894;42.544;1.516;2023-11-19T11:30:49;19.72;34.10
72772;SHT30;60894;42.544;1.516;2023-11-19T11:33:39;19.86;34.90
72772;SHT30;60894;42.544;1.516;2023-11-19T11:36:14;19.49;35.23
72772;SHT30;60894;42.544;1.516;2023-11-19T11:38:51;19.79;35.61
72772;SHT30;60894;42.544;1.516;2023-11-19T11:41:19;19.96;35.04
72772;SHT30;60894;42.544;1.516;2023-11-19T11:43:49;20.07;34.25
72772;SHT30;60894;42.544;1.516;2023-11-19T11:46:53;20.31;34.17
72772;SHT30;60894;42.544;1.516;2023-11-19T11:49:28;20.27;33.90
72772;SHT30;60894;42.544;1.516;2023-11-19T11:52:04;20.17;33.73
72772;SHT30;60894;42.544;1.516;2023-11-19T11:54:31;20.30;33.27
72772;SHT30;60894;42.544;1.516;2023-11-19T11:57:07;20.18;32.94
72772;SHT30;60894;42.544;1.516;2023-11-19T11:59:46;20.06;33.58
72772;SHT30;60894;42.544;1.516;2023-11-19T12:02:15;19.93;33.26
72772;SHT30;60894;42.544;1.516;2023-11-19T12:04:43;19.98;33.28
72772;SHT30;60894;42.544;1.516;2023-11-19T12:07:16;20.24;32.55
72772;SHT30;60894;42.544;1.516;2023-11-19T12:09:47;20.16;33.19
72772;SHT30;60894;42.544;1.516;2023-11-19T12:12:19;20.25;32.39
72772;SHT30;60894;42.544;1.516;2023-11-19T12:15:06;20.34;32.44
72772;SHT30;60894;42.544;1.516;2023-11-19T12:17:52;20.24;32.91
72772;SHT30;60894;42.544;1.516;2023-11-19T12:20:21;20.61;32.23
72772;SHT30;60894;42.544;1.516;2023-11-19T12:22:50;20.96;31.82
72772;SHT30;60894;42.544;1.516;2023-11-19T12:25:18;21.30;31.69
72772;SHT30;60894;42.544;1.516;2023-11-19T12:27:46;21.68;30.79
72772;SHT30;60894;42.544;1.516;2023-11-19T12:30:17;21.73;31.04
72772;SHT30;60894;42.544;1.516;2023-11-19T12:32:45;22.09;31.22
72772;SHT30;60894;42.544;1.516;2023-11-19T12:35:12;21.77;31.59
72772;SHT30;60894;42.544;1.516;2023-11-19T12:37:43;21.92;31.05
72772;SHT30;60894;42.544;1.516;2023-11-19T12:40:19;21.97;31.03
72772;SHT30;60894;42.544;1.516;2023-11-19T12:42:47;21.64;31.55
72772;SHT30;60894;42.544;1.516;2023-11-19T12:45:14;21.40;32.24
72772;SHT30;60894;42.544;1.516;2023-11-19T12:47:42;21.82;31.92
72772;SHT30;60894;42.544;1.516;2023-11-19T12:50:10;21.65;31.94
72772;SHT30;60894;42.544;1.516;2023-11-19T12:52:37;21.85;32.42
72772;SHT30;60894;42.544;1.516;2023-11-19T12:55:06;21.94;32.19
72772;SHT30;60894;42.544;1.516;2023-11-19T12:57:52;21.39;33.72
72772;SHT30;60894;42.544;1.516;2023-11-19T13:00:21;21.64;33.03
72772;SHT30;60894;42.544;1.516;2023-11-19T13:02:50;21.63;33.54
72772;SHT30;60894;42.544;1.516;2023-11-19T13:05:23;21.58;33.28
72772;SHT30;60894;42.544;1.516;2023-11-19T13:07:50;21.81;33.98
72772;SHT30;60894;42.544;1.516;2023-11-19T13:10:17;22.25;33.78
72772;SHT30;60894;42.544;1.516;2023-11-19T13:12:44;22.23;32.60
72772;SHT30;60894;42.544;1.516;2023-11-19T13:15:24;22.53;32.47
72772;SHT30;60894;42.544;1.516;2023-11-19T13:17:52;22.93;34.54
72772;SHT30;60894;42.544;1.516;2023-11-19T13:20:19;22.97;32.60
72772;SHT30;60894;42.544;1.516;2023-11-19T13:22:57;22.83;32.72
72772;SHT30;60894;42.544;1.516;2023-11-19T13:25:24;23.24;34.16
72772;SHT30;60894;42.544;1.516;2023-11-19T13:27:51;23.51;33.09
72772;SHT30;60894;42.544;1.516;2023-11-19T13:30:18;23.54;32.93
72772;SHT30;60894;42.544;1.516;2023-11-19T13:32:46;23.35;34.33
72772;SHT30;60894;42.544;1.516;2023-11-19T13:35:13;23.59;34.24
72772;SHT30;60894;42.544;1.516;2023-11-19T13:37:40;23.40;34.32
72772;SHT30;60894;42.544;1.516;2023-11-19T13:40:08;23.55;33.46
72772;SHT30;60894;42.544;1.516;2023-11-19T13:42:36;23.58;32.98
72772;SHT30;60894;42.544;1.516;2023-11-19T13:45:08;23.61;32.65
72772;SHT30;60894;42.544;1.516;2023-11-19T13:47:37;23.52;32.96
72772;SHT30;60894;42.544;1.516;2023-11-19T13:50:08;23.07;33.95
72772;SHT30;60894;42.544;1.516;2023-11-19T13:52:36;23.25;33.56
72772;SHT30;60894;42.544;1.516;2023-11-19T13:55:06;23.51;33.60
72772;SHT30;60894;42.544;1.516;2023-11-19T13:57:33;23.48;33.72
72772;SHT30;60894;42.544;1.516;2023-11-19T14:00:01;23.38;33.19
72772;SHT30;60894;42.544;1.516;2023-11-19T14:02:30;23.50;33.54
72772;SHT30;60894;42.544;1.516;2023-11-19T14:04:57;23.28;35.07
72772;SHT30;60894;42.544;1.516;2023-11-19T14:07:26;23.25;34.14
72772;SHT30;60894;42.544;1.516;2023-11-19T14:09:53;23.20;34.41
72772;SHT30;60894;42.544;1.516;2023-11-19T14:12:20;23.08;34.00
72772;SHT30;60894;42.544;1.516;2023-11-19T14:14:47;23.23;33.84
72772;SHT30;60894;42.544;1.516;2023-11-19T14:17:14;23.07;34.40
72772;SHT30;60894;42.544;1.516;2023-11-19T14:19:42;22.84;36.10
72772;SHT30;60894;42.544;1.516;2023-11-19T14:22:09;21.84;37.85
72772;SHT30;60894;42.544;1.516;2023-11-19T14:24:38;22.28;36.87
72772;SHT30;60894;42.544;1.516;2023-11-19T14:27:07;22.16;36.32
72772;SHT30;60894;42.544;1.516;2023-11-19T14:29:34;21.36;39.61
72772;SHT30;60894;42.544;1.516;2023-11-19T14:32:01;20.82;39.84
72772;SHT30;60894;42.544;1.516;2023-11-19T14:34:28;19.89;42.66
72772;SHT30;60894;42.544;1.516;2023-11-19T14:36:55;19.16;43.29
72772;SHT30;60894;42.544;1.516;2023-11-19T14:39:22;18.88;43.42
72772;SHT30;60894;42.544;1.516;2023-11-19T14:41:50;18.34;45.09
72772;SHT30;60894;42.544;1.516;2023-11-19T14:44:19;18.25;44.66
72772;SHT30;60894;42.544;1.516;2023-11-19T14:46:46;18.23;44.41
72772;SHT30;60894;42.544;1.516;2023-11-19T14:49:14;17.85;45.83
72772;SHT30;60894;42.544;1.516;2023-11-19T14:51:41;17.51;46.52
72772;SHT30;60894;42.544;1.516;2023-11-19T14:54:08;17.55;46.73
72772;SHT30;60894;42.544;1.516;2023-11-19T14:56:35;17.42;46.84
72772;SHT30;60894;42.544;1.516;2023-11-19T14:59:05;17.38;47.13
72772;SHT30;60894;42.544;1.516;2023-11-19T15:01:33;17.16;48.16
72772;SHT30;60894;42.544;1.516;2023-11-19T15:03:59;16.58;49.33
72772;SHT30;60894;42.544;1.516;2023-11-19T15:06:26;16.58;49.14
72772;SHT30;60894;42.544;1.516;2023-11-19T15:08:53;16.73;49.01
72772;SHT30;60894;42.544;1.516;2023-11-19T15:11:21;16.53;50.04
72772;SHT30;60894;42.544;1.516;2023-11-19T15:13:50;16.51;49.95
72772;SHT30;60894;42.544;1.516;2023-11-19T15:16:18;16.62;49.11
72772;SHT30;60894;42.544;1.516;2023-11-19T15:18:56;16.26;50.94
72772;SHT30;60894;42.544;1.516;2023-11-19T15:21:25;16.22;50.56
72772;SHT30;60894;42.544;1.516;2023-11-19T15:23:53;16.18;50.73
72772;SHT30;60894;42.544;1.516;2023-11-19T15:26:20;15.74;52.24
72772;SHT30;60894;42.544;1.516;2023-11-19T15:28:47;15.74;52.33
72772;SHT30;60894;42.544;1.516;2023-11-19T15:31:14;15.74;52.54
72772;SHT30;60894;42.544;1.516;2023-11-19T15:33:43;15.53;53.26
72772;SHT30;60894;42.544;1.516;2023-11-19T15:36:12;15.67;51.79
72772;SHT30;60894;42.544;1.516;2023-11-19T15:38:39;15.76;52.88
72772;SHT30;60894;42.544;1.516;2023-11-19T15:41:06;15.60;52.48
72772;SHT30;60894;42.544;1.516;2023-11-19T15:43:34;15.49;53.77
72772;SHT30;60894;42.544;1.516;2023-11-19T15:46:01;15.33;54.02
72772;SHT30;60894;42.544;1.516;2023-11-19T15:48:28;15.19;54.43
72772;SHT30;60894;42.544;1.516;2023-11-19T15:50:56;15.19;54.88